BCS2283 ESOE-EBBR
Flight info
| Callsign | BCS2283 |
|---|---|
| Flight time | 1h 37m |
| Altitude | 32000 |
| Route | DEPEX DCT LABAN DCT VADIN DCT NISEM DCT GIDLA DCT JUIST DCT PAM/N0445F330 N872 WOODY |
| Aircraft | A306/H-SDE3FGHIRWY/LB1 |
Departure
| Time | 2026-05-07 09:33 |
|---|---|
| Airport | Örebro Airport (ESOE) |
Arrival
| Time | 2026-05-07 11:11 |
|---|---|
| Airport | Brussels Airport (EBBR) |
| Time | Latitude | Longitude | Altitude | Speed | Heading |
|---|---|---|---|---|---|
| 2026-05-07 09:10 | 59.22502 | 15.04470 | 191 ft | 0 kts | 101° |
| 2026-05-07 09:24 | 59.22502 | 15.04468 | 190 ft | 1 kts | 101° |
| 2026-05-07 09:24 | 59.22507 | 15.04422 | 206 ft | 4 kts | 101° |
| 2026-05-07 09:25 | 59.22512 | 15.04372 | 209 ft | 4 kts | 115° |
| 2026-05-07 09:25 | 59.22528 | 15.04336 | 190 ft | 4 kts | 160° |
| 2026-05-07 09:25 | 59.22550 | 15.04331 | 201 ft | 1 kts | 192° |
| 2026-05-07 09:25 | 59.22555 | 15.04333 | 206 ft | 0 kts | 192° |
| 2026-05-07 09:28 | 59.22527 | 15.04321 | 209 ft | 7 kts | 192° |
| 2026-05-07 09:28 | 59.22468 | 15.04288 | 199 ft | 8 kts | 214° |
| 2026-05-07 09:28 | 59.22472 | 15.04128 | 199 ft | 19 kts | 283° |
| 2026-05-07 09:29 | 59.22504 | 15.03902 | 200 ft | 15 kts | 304° |
| 2026-05-07 09:29 | 59.22611 | 15.03891 | 202 ft | 21 kts | 11° |
| 2026-05-07 09:29 | 59.22775 | 15.03956 | 195 ft | 24 kts | 12° |
| 2026-05-07 09:29 | 59.22933 | 15.04021 | 194 ft | 22 kts | 11° |
| 2026-05-07 09:30 | 59.23071 | 15.04076 | 191 ft | 19 kts | 11° |
| 2026-05-07 09:30 | 59.23197 | 15.04127 | 192 ft | 22 kts | 12° |
| 2026-05-07 09:30 | 59.23370 | 15.04199 | 197 ft | 26 kts | 12° |
| 2026-05-07 09:30 | 59.23544 | 15.04232 | 201 ft | 21 kts | 343° |
| 2026-05-07 09:31 | 59.23621 | 15.04256 | 205 ft | 9 kts | 78° |
| 2026-05-07 09:31 | 59.23582 | 15.04286 | 201 ft | 9 kts | 190° |
| 2026-05-07 09:31 | 59.23562 | 15.04279 | 190 ft | 0 kts | 191° |
| 2026-05-07 09:32 | 59.23518 | 15.04262 | 190 ft | 28 kts | 192° |
| 2026-05-07 09:32 | 59.23098 | 15.04090 | 200 ft | 94 kts | 192° |
| 2026-05-07 09:33 | 59.22265 | 15.03752 | 200 ft | 148 kts | 192° |
| 2026-05-07 09:33 | 59.21094 | 15.03272 | 330 ft | 187 kts | 192° |
| 2026-05-07 09:33 | 59.19779 | 15.02732 | 1068 ft | 199 kts | 192° |
| 2026-05-07 09:33 | 59.18356 | 15.02014 | 1733 ft | 219 kts | 205° |
| 2026-05-07 09:34 | 59.17011 | 15.00442 | 2359 ft | 237 kts | 215° |
| 2026-05-07 09:34 | 59.15656 | 14.98396 | 2912 ft | 253 kts | 223° |
| 2026-05-07 09:34 | 59.14347 | 14.96050 | 3689 ft | 258 kts | 223° |
| 2026-05-07 09:34 | 59.13007 | 14.93704 | 4589 ft | 260 kts | 223° |
| 2026-05-07 09:35 | 59.11658 | 14.91337 | 5495 ft | 261 kts | 223° |
| 2026-05-07 09:35 | 59.10318 | 14.88967 | 6459 ft | 260 kts | 223° |
| 2026-05-07 09:35 | 59.08978 | 14.86603 | 7342 ft | 261 kts | 223° |
| 2026-05-07 09:35 | 59.08077 | 14.85030 | 7897 ft | 263 kts | 223° |
| 2026-05-07 09:36 | 59.06710 | 14.82639 | 8762 ft | 266 kts | 224° |
| 2026-05-07 09:36 | 59.04878 | 14.79392 | 9873 ft | 271 kts | 225° |
| 2026-05-07 09:36 | 59.03469 | 14.76889 | 10500 ft | 280 kts | 225° |
| 2026-05-07 09:36 | 59.01983 | 14.74242 | 10793 ft | 300 kts | 225° |
| 2026-05-07 09:37 | 59.00402 | 14.71424 | 11055 ft | 317 kts | 225° |
| 2026-05-07 09:37 | 58.99302 | 14.69468 | 11230 ft | 328 kts | 225° |
| 2026-05-07 09:37 | 58.97578 | 14.66415 | 11488 ft | 343 kts | 225° |
| 2026-05-07 09:37 | 58.95785 | 14.63253 | 11872 ft | 353 kts | 225° |
| 2026-05-07 09:38 | 58.93953 | 14.60034 | 12428 ft | 357 kts | 225° |
| 2026-05-07 09:38 | 58.92102 | 14.56787 | 13056 ft | 359 kts | 225° |
| 2026-05-07 09:38 | 58.90240 | 14.53528 | 13674 ft | 362 kts | 225° |
| 2026-05-07 09:38 | 58.88366 | 14.50248 | 14248 ft | 364 kts | 225° |
| 2026-05-07 09:39 | 58.86483 | 14.46956 | 14778 ft | 367 kts | 225° |
| 2026-05-07 09:39 | 58.84606 | 14.43682 | 15303 ft | 369 kts | 225° |
| 2026-05-07 09:39 | 58.82692 | 14.40342 | 15852 ft | 372 kts | 225° |
| 2026-05-07 09:39 | 58.80768 | 14.36986 | 16394 ft | 374 kts | 225° |
| 2026-05-07 09:40 | 58.78822 | 14.33598 | 16861 ft | 378 kts | 225° |
| 2026-05-07 09:40 | 58.76852 | 14.30174 | 17356 ft | 382 kts | 225° |
| 2026-05-07 09:40 | 58.74871 | 14.26739 | 17896 ft | 384 kts | 225° |
| 2026-05-07 09:40 | 58.72878 | 14.23287 | 18416 ft | 387 kts | 225° |
| 2026-05-07 09:41 | 58.70868 | 14.19811 | 18844 ft | 389 kts | 225° |
| 2026-05-07 09:41 | 58.68850 | 14.16327 | 19285 ft | 391 kts | 225° |
| 2026-05-07 09:41 | 58.66819 | 14.12830 | 19719 ft | 393 kts | 225° |
| 2026-05-07 09:41 | 58.64802 | 14.09359 | 20144 ft | 395 kts | 225° |
| 2026-05-07 09:42 | 58.62747 | 14.05829 | 20565 ft | 397 kts | 225° |
| 2026-05-07 09:42 | 58.60683 | 14.02290 | 20973 ft | 399 kts | 225° |
| 2026-05-07 09:42 | 58.58606 | 13.98732 | 21370 ft | 401 kts | 225° |
| 2026-05-07 09:42 | 58.56518 | 13.95163 | 21764 ft | 403 kts | 225° |
| 2026-05-07 09:43 | 58.54417 | 13.91574 | 22067 ft | 406 kts | 225° |
| 2026-05-07 09:43 | 58.52317 | 13.87994 | 22427 ft | 409 kts | 225° |
| 2026-05-07 09:43 | 58.50161 | 13.84330 | 22843 ft | 411 kts | 225° |
| 2026-05-07 09:43 | 58.48047 | 13.80747 | 23202 ft | 412 kts | 225° |
| 2026-05-07 09:44 | 58.45892 | 13.77097 | 23574 ft | 414 kts | 225° |
| 2026-05-07 09:44 | 58.43734 | 13.73449 | 23876 ft | 416 kts | 225° |
| 2026-05-07 09:44 | 58.41558 | 13.69773 | 24143 ft | 418 kts | 225° |
| 2026-05-07 09:44 | 58.39373 | 13.66087 | 24416 ft | 420 kts | 225° |
| 2026-05-07 09:45 | 58.37173 | 13.62385 | 24709 ft | 422 kts | 225° |
| 2026-05-07 09:45 | 58.34961 | 13.58667 | 24981 ft | 424 kts | 225° |
| 2026-05-07 09:45 | 58.32770 | 13.54992 | 25230 ft | 426 kts | 225° |
| 2026-05-07 09:45 | 58.30540 | 13.51257 | 25408 ft | 428 kts | 225° |
| 2026-05-07 09:46 | 58.28291 | 13.47496 | 25601 ft | 432 kts | 225° |
| 2026-05-07 09:46 | 58.26028 | 13.43720 | 25834 ft | 434 kts | 225° |
| 2026-05-07 09:46 | 58.23752 | 13.39929 | 26095 ft | 435 kts | 225° |
| 2026-05-07 09:46 | 58.21469 | 13.36135 | 26344 ft | 437 kts | 225° |
| 2026-05-07 09:47 | 58.19182 | 13.32340 | 26573 ft | 438 kts | 225° |
| 2026-05-07 09:47 | 58.16883 | 13.28531 | 26801 ft | 440 kts | 225° |
| 2026-05-07 09:47 | 58.14573 | 13.24712 | 27021 ft | 441 kts | 225° |
| 2026-05-07 09:47 | 58.12251 | 13.20877 | 27239 ft | 443 kts | 225° |
| 2026-05-07 09:48 | 58.09947 | 13.17082 | 27453 ft | 445 kts | 225° |
| 2026-05-07 09:48 | 58.07610 | 13.13238 | 27641 ft | 446 kts | 225° |
| 2026-05-07 09:48 | 58.05263 | 13.09383 | 27856 ft | 448 kts | 225° |
| 2026-05-07 09:48 | 58.02911 | 13.05527 | 28098 ft | 448 kts | 225° |
| 2026-05-07 09:49 | 58.00555 | 13.01677 | 28387 ft | 447 kts | 225° |
| 2026-05-07 09:49 | 57.98204 | 12.97840 | 28695 ft | 447 kts | 225° |
| 2026-05-07 09:49 | 57.95853 | 12.94009 | 28983 ft | 446 kts | 225° |
| 2026-05-07 09:49 | 57.93500 | 12.90182 | 29286 ft | 446 kts | 225° |
| 2026-05-07 09:50 | 57.91155 | 12.86379 | 29584 ft | 445 kts | 225° |
| 2026-05-07 09:50 | 57.88836 | 12.82620 | 29883 ft | 444 kts | 225° |
| 2026-05-07 09:50 | 57.86496 | 12.78833 | 30172 ft | 444 kts | 225° |
| 2026-05-07 09:50 | 57.84154 | 12.75048 | 30401 ft | 443 kts | 225° |
| 2026-05-07 09:51 | 57.81807 | 12.71262 | 30548 ft | 445 kts | 225° |
| 2026-05-07 09:51 | 57.79452 | 12.67468 | 30703 ft | 446 kts | 225° |
| 2026-05-07 09:51 | 57.77099 | 12.63685 | 30960 ft | 445 kts | 225° |
| 2026-05-07 09:51 | 57.74777 | 12.59960 | 31219 ft | 444 kts | 225° |
| 2026-05-07 09:52 | 57.72425 | 12.56198 | 31461 ft | 444 kts | 225° |
| 2026-05-07 09:52 | 57.70085 | 12.52459 | 31689 ft | 444 kts | 225° |
| 2026-05-07 09:52 | 57.67735 | 12.48708 | 31922 ft | 443 kts | 225° |
| 2026-05-07 09:52 | 57.65386 | 12.44966 | 32051 ft | 442 kts | 225° |
| 2026-05-07 09:53 | 57.63058 | 12.41266 | 32078 ft | 437 kts | 225° |
| 2026-05-07 09:53 | 57.58455 | 12.33975 | 32064 ft | 433 kts | 224° |
| 2026-05-07 09:54 | 57.53846 | 12.26684 | 32084 ft | 435 kts | 224° |
| 2026-05-07 09:54 | 57.49240 | 12.19424 | 32085 ft | 436 kts | 224° |
| 2026-05-07 09:55 | 57.44627 | 12.12184 | 32081 ft | 436 kts | 224° |
| 2026-05-07 09:55 | 57.39992 | 12.04934 | 32081 ft | 436 kts | 224° |
| 2026-05-07 09:56 | 57.35353 | 11.97702 | 32063 ft | 436 kts | 224° |
| 2026-05-07 09:56 | 57.30721 | 11.90505 | 32094 ft | 438 kts | 224° |
| 2026-05-07 09:57 | 57.26017 | 11.83221 | 32092 ft | 439 kts | 224° |
| 2026-05-07 09:57 | 57.21360 | 11.76037 | 32097 ft | 438 kts | 223° |
| 2026-05-07 09:58 | 57.16672 | 11.68829 | 32099 ft | 438 kts | 223° |
| 2026-05-07 09:58 | 57.11825 | 11.62040 | 32098 ft | 441 kts | 218° |
| 2026-05-07 09:59 | 57.06741 | 11.55735 | 32095 ft | 437 kts | 217° |
| 2026-05-07 09:59 | 57.01683 | 11.49610 | 32097 ft | 434 kts | 217° |
| 2026-05-07 10:00 | 56.96637 | 11.43518 | 32098 ft | 434 kts | 217° |
| 2026-05-07 10:00 | 56.91587 | 11.37420 | 32099 ft | 434 kts | 217° |
| 2026-05-07 10:01 | 56.86557 | 11.31359 | 32076 ft | 434 kts | 217° |
| 2026-05-07 10:01 | 56.81492 | 11.25259 | 32096 ft | 437 kts | 217° |
| 2026-05-07 10:02 | 56.76396 | 11.19165 | 32096 ft | 438 kts | 216° |
| 2026-05-07 10:02 | 56.71318 | 11.13115 | 32096 ft | 438 kts | 216° |
| 2026-05-07 10:03 | 56.66204 | 11.07037 | 32093 ft | 438 kts | 216° |
| 2026-05-07 10:03 | 56.61096 | 11.00982 | 32082 ft | 438 kts | 216° |
| 2026-05-07 10:04 | 56.55973 | 10.94885 | 32095 ft | 441 kts | 216° |
| 2026-05-07 10:04 | 56.50854 | 10.88877 | 32095 ft | 441 kts | 216° |
| 2026-05-07 10:05 | 56.45696 | 10.82844 | 32096 ft | 441 kts | 216° |
| 2026-05-07 10:05 | 56.40539 | 10.76820 | 32099 ft | 441 kts | 216° |
| 2026-05-07 10:06 | 56.35372 | 10.70800 | 32104 ft | 442 kts | 215° |
| 2026-05-07 10:06 | 56.30196 | 10.64785 | 32102 ft | 443 kts | 215° |
| 2026-05-07 10:07 | 56.25036 | 10.58800 | 32101 ft | 443 kts | 215° |
| 2026-05-07 10:07 | 56.19841 | 10.52800 | 32087 ft | 443 kts | 215° |
| 2026-05-07 10:08 | 56.14637 | 10.46812 | 32086 ft | 443 kts | 215° |
| 2026-05-07 10:08 | 56.09441 | 10.40851 | 32086 ft | 444 kts | 214° |
| 2026-05-07 10:09 | 56.04267 | 10.34939 | 32088 ft | 444 kts | 214° |
| 2026-05-07 10:09 | 55.99053 | 10.28999 | 32088 ft | 444 kts | 214° |
| 2026-05-07 10:10 | 55.93836 | 10.23073 | 32094 ft | 444 kts | 214° |
| 2026-05-07 10:10 | 55.88603 | 10.17139 | 32088 ft | 445 kts | 214° |
| 2026-05-07 10:11 | 55.83361 | 10.11205 | 32086 ft | 447 kts | 214° |
| 2026-05-07 10:11 | 55.78138 | 10.05344 | 32086 ft | 447 kts | 214° |
| 2026-05-07 10:12 | 55.72870 | 9.99448 | 32086 ft | 447 kts | 214° |
| 2026-05-07 10:12 | 55.67604 | 9.93562 | 32089 ft | 445 kts | 215° |
| 2026-05-07 10:13 | 55.62755 | 9.86958 | 32081 ft | 440 kts | 221° |
| 2026-05-07 10:13 | 55.58075 | 9.79963 | 32086 ft | 440 kts | 223° |
| 2026-05-07 10:14 | 55.53419 | 9.72911 | 32086 ft | 440 kts | 223° |
| 2026-05-07 10:14 | 55.48783 | 9.65926 | 32086 ft | 440 kts | 222° |
| 2026-05-07 10:15 | 55.44109 | 9.58930 | 32089 ft | 440 kts | 222° |
| 2026-05-07 10:15 | 55.39434 | 9.51962 | 32084 ft | 440 kts | 222° |
| 2026-05-07 10:16 | 55.34753 | 9.44979 | 32079 ft | 441 kts | 222° |
| 2026-05-07 10:16 | 55.30081 | 9.38069 | 32077 ft | 442 kts | 222° |
| 2026-05-07 10:17 | 55.25367 | 9.31123 | 32101 ft | 443 kts | 222° |
| 2026-05-07 10:17 | 55.20648 | 9.24193 | 32099 ft | 443 kts | 221° |
| 2026-05-07 10:18 | 55.15921 | 9.17271 | 32117 ft | 443 kts | 221° |
| 2026-05-07 10:18 | 55.11196 | 9.10347 | 32089 ft | 443 kts | 221° |
| 2026-05-07 10:19 | 55.06480 | 9.03480 | 32085 ft | 444 kts | 221° |
| 2026-05-07 10:19 | 55.01732 | 8.96591 | 32103 ft | 443 kts | 221° |
| 2026-05-07 10:20 | 54.96989 | 8.89709 | 32096 ft | 444 kts | 221° |
| 2026-05-07 10:20 | 54.92270 | 8.82789 | 32073 ft | 443 kts | 221° |
| 2026-05-07 10:21 | 54.87563 | 8.75881 | 32091 ft | 443 kts | 221° |
| 2026-05-07 10:21 | 54.82843 | 8.68983 | 32101 ft | 443 kts | 221° |
| 2026-05-07 10:22 | 54.78109 | 8.62074 | 32096 ft | 446 kts | 221° |
| 2026-05-07 10:22 | 54.73380 | 8.55229 | 32089 ft | 446 kts | 221° |
| 2026-05-07 10:23 | 54.68610 | 8.48345 | 32094 ft | 445 kts | 221° |
| 2026-05-07 10:23 | 54.63848 | 8.41486 | 32093 ft | 445 kts | 221° |
| 2026-05-07 10:24 | 54.59080 | 8.34638 | 32090 ft | 445 kts | 221° |
| 2026-05-07 10:24 | 54.54339 | 8.27849 | 32086 ft | 445 kts | 221° |
| 2026-05-07 10:25 | 54.49566 | 8.21036 | 32083 ft | 445 kts | 220° |
| 2026-05-07 10:25 | 54.44789 | 8.14240 | 32092 ft | 444 kts | 220° |
| 2026-05-07 10:26 | 54.40062 | 8.07536 | 32093 ft | 442 kts | 220° |
| 2026-05-07 10:26 | 54.35306 | 8.00810 | 32092 ft | 443 kts | 220° |
| 2026-05-07 10:27 | 54.31342 | 7.95223 | 32085 ft | 445 kts | 220° |
| 2026-05-07 10:27 | 54.26541 | 7.88452 | 32095 ft | 446 kts | 220° |
| 2026-05-07 10:28 | 54.21738 | 7.81727 | 32096 ft | 445 kts | 220° |
| 2026-05-07 10:28 | 54.16951 | 7.75047 | 32085 ft | 443 kts | 220° |
| 2026-05-07 10:29 | 54.12165 | 7.68383 | 32088 ft | 443 kts | 220° |
| 2026-05-07 10:29 | 54.07411 | 7.61782 | 32086 ft | 443 kts | 220° |
| 2026-05-07 10:30 | 54.00225 | 7.51840 | 32086 ft | 443 kts | 220° |
| 2026-05-07 10:30 | 53.95439 | 7.45235 | 32086 ft | 443 kts | 219° |
| 2026-05-07 10:31 | 53.90654 | 7.38666 | 32076 ft | 442 kts | 220° |
| 2026-05-07 10:31 | 53.85882 | 7.32136 | 32074 ft | 443 kts | 219° |
| 2026-05-07 10:32 | 53.81072 | 7.25575 | 32076 ft | 445 kts | 219° |
| 2026-05-07 10:32 | 53.76247 | 7.19005 | 32077 ft | 444 kts | 219° |
| 2026-05-07 10:33 | 53.71443 | 7.12472 | 32072 ft | 442 kts | 219° |
| 2026-05-07 10:33 | 53.66641 | 7.05969 | 32074 ft | 442 kts | 219° |
| 2026-05-07 10:34 | 53.61830 | 6.99481 | 32067 ft | 442 kts | 219° |
| 2026-05-07 10:34 | 53.57015 | 6.93006 | 32061 ft | 442 kts | 219° |
| 2026-05-07 10:35 | 53.52400 | 6.86263 | 32058 ft | 441 kts | 223° |
| 2026-05-07 10:35 | 53.47949 | 6.79285 | 32063 ft | 436 kts | 223° |
| 2026-05-07 10:36 | 53.43496 | 6.72324 | 32066 ft | 436 kts | 223° |
| 2026-05-07 10:36 | 53.39004 | 6.65406 | 32068 ft | 443 kts | 223° |
| 2026-05-07 10:37 | 53.34438 | 6.58401 | 32070 ft | 445 kts | 223° |
| 2026-05-07 10:37 | 53.29853 | 6.51418 | 32061 ft | 446 kts | 222° |
| 2026-05-07 10:38 | 53.25297 | 6.44510 | 32052 ft | 445 kts | 223° |
| 2026-05-07 10:38 | 53.20704 | 6.37551 | 32051 ft | 445 kts | 222° |
| 2026-05-07 10:39 | 53.16106 | 6.30608 | 32059 ft | 446 kts | 222° |
| 2026-05-07 10:39 | 53.11501 | 6.23675 | 32064 ft | 446 kts | 222° |
| 2026-05-07 10:40 | 53.06908 | 6.16757 | 32051 ft | 443 kts | 223° |
| 2026-05-07 10:40 | 53.02390 | 6.09964 | 32058 ft | 438 kts | 222° |
| 2026-05-07 10:41 | 52.97821 | 6.03166 | 32060 ft | 444 kts | 222° |
| 2026-05-07 10:41 | 52.93204 | 5.96310 | 32059 ft | 445 kts | 221° |
| 2026-05-07 10:42 | 52.88577 | 5.89464 | 32054 ft | 445 kts | 222° |
| 2026-05-07 10:42 | 52.83991 | 5.82680 | 32056 ft | 443 kts | 222° |
| 2026-05-07 10:43 | 52.79419 | 5.75928 | 32056 ft | 438 kts | 222° |
| 2026-05-07 10:43 | 52.74859 | 5.69216 | 32063 ft | 438 kts | 221° |
| 2026-05-07 10:44 | 52.70303 | 5.62532 | 32071 ft | 438 kts | 222° |
| 2026-05-07 10:44 | 52.65734 | 5.55850 | 32062 ft | 438 kts | 221° |
| 2026-05-07 10:45 | 52.61205 | 5.49249 | 32074 ft | 436 kts | 221° |
| 2026-05-07 10:45 | 52.56667 | 5.42653 | 32077 ft | 436 kts | 221° |
| 2026-05-07 10:46 | 52.52116 | 5.36052 | 32072 ft | 436 kts | 221° |
| 2026-05-07 10:46 | 52.47555 | 5.29458 | 32077 ft | 436 kts | 221° |
| 2026-05-07 10:47 | 52.42964 | 5.22841 | 32071 ft | 444 kts | 221° |
| 2026-05-07 10:47 | 52.38303 | 5.16140 | 32072 ft | 451 kts | 221° |
| 2026-05-07 10:48 | 52.33469 | 5.09613 | 32070 ft | 451 kts | 213° |
| 2026-05-07 10:48 | 52.27956 | 5.04726 | 32077 ft | 450 kts | 207° |
| 2026-05-07 10:49 | 52.25153 | 5.02459 | 31791 ft | 444 kts | 206° |
| 2026-05-07 10:49 | 52.22394 | 5.00284 | 31339 ft | 437 kts | 206° |
| 2026-05-07 10:49 | 52.19669 | 4.98156 | 30772 ft | 433 kts | 206° |
| 2026-05-07 10:49 | 52.16956 | 4.96036 | 30207 ft | 430 kts | 206° |
| 2026-05-07 10:50 | 52.14265 | 4.93928 | 29568 ft | 426 kts | 206° |
| 2026-05-07 10:50 | 52.11606 | 4.91837 | 29017 ft | 421 kts | 206° |
| 2026-05-07 10:50 | 52.08988 | 4.89774 | 28506 ft | 416 kts | 206° |
| 2026-05-07 10:50 | 52.06401 | 4.87734 | 27972 ft | 411 kts | 206° |
| 2026-05-07 10:51 | 52.03838 | 4.85712 | 27446 ft | 407 kts | 207° |
| 2026-05-07 10:51 | 52.01320 | 4.83729 | 26926 ft | 404 kts | 206° |
| 2026-05-07 10:51 | 51.98805 | 4.81749 | 26412 ft | 401 kts | 206° |
| 2026-05-07 10:51 | 51.96300 | 4.79781 | 25900 ft | 399 kts | 206° |
| 2026-05-07 10:52 | 51.93809 | 4.77827 | 25388 ft | 396 kts | 206° |
| 2026-05-07 10:52 | 51.91336 | 4.75889 | 24864 ft | 394 kts | 206° |
| 2026-05-07 10:52 | 51.88865 | 4.73957 | 24352 ft | 393 kts | 206° |
| 2026-05-07 10:52 | 51.86405 | 4.72035 | 23814 ft | 392 kts | 206° |
| 2026-05-07 10:53 | 51.83946 | 4.70117 | 23231 ft | 392 kts | 206° |
| 2026-05-07 10:53 | 51.81495 | 4.68207 | 22681 ft | 389 kts | 206° |
| 2026-05-07 10:53 | 51.79062 | 4.66313 | 22166 ft | 386 kts | 206° |
| 2026-05-07 10:53 | 51.76652 | 4.64438 | 21627 ft | 384 kts | 206° |
| 2026-05-07 10:54 | 51.74260 | 4.62579 | 21103 ft | 381 kts | 206° |
| 2026-05-07 10:54 | 51.71873 | 4.60725 | 20567 ft | 379 kts | 206° |
| 2026-05-07 10:54 | 51.69498 | 4.58884 | 20051 ft | 378 kts | 206° |
| 2026-05-07 10:54 | 51.67127 | 4.57047 | 19513 ft | 378 kts | 206° |
| 2026-05-07 10:55 | 51.64786 | 4.55239 | 19051 ft | 375 kts | 206° |
| 2026-05-07 10:55 | 51.62435 | 4.53425 | 18503 ft | 374 kts | 206° |
| 2026-05-07 10:55 | 51.60099 | 4.51626 | 17975 ft | 371 kts | 206° |
| 2026-05-07 10:55 | 51.57780 | 4.49841 | 17554 ft | 367 kts | 206° |
| 2026-05-07 10:56 | 51.55465 | 4.48061 | 17015 ft | 366 kts | 206° |
| 2026-05-07 10:56 | 51.53176 | 4.46303 | 16454 ft | 365 kts | 206° |
| 2026-05-07 10:56 | 51.50906 | 4.44555 | 16031 ft | 359 kts | 206° |
| 2026-05-07 10:56 | 51.48642 | 4.42817 | 15486 ft | 358 kts | 206° |
| 2026-05-07 10:57 | 51.46443 | 4.41136 | 14930 ft | 357 kts | 206° |
| 2026-05-07 10:57 | 51.44185 | 4.39413 | 14502 ft | 351 kts | 206° |
| 2026-05-07 10:57 | 51.42000 | 4.37745 | 13962 ft | 351 kts | 206° |
| 2026-05-07 10:57 | 51.39807 | 4.36073 | 13367 ft | 349 kts | 206° |
| 2026-05-07 10:58 | 51.37632 | 4.34413 | 12925 ft | 343 kts | 206° |
| 2026-05-07 10:58 | 51.35472 | 4.32774 | 12419 ft | 341 kts | 206° |
| 2026-05-07 10:58 | 51.33351 | 4.31160 | 11829 ft | 333 kts | 206° |
| 2026-05-07 10:58 | 51.31283 | 4.29609 | 11329 ft | 321 kts | 204° |
| 2026-05-07 10:59 | 51.29176 | 4.28651 | 10857 ft | 311 kts | 186° |
| 2026-05-07 10:59 | 51.27046 | 4.28938 | 10398 ft | 305 kts | 163° |
| 2026-05-07 10:59 | 51.25164 | 4.30499 | 10132 ft | 309 kts | 141° |
| 2026-05-07 10:59 | 51.23785 | 4.33039 | 10078 ft | 304 kts | 123° |
| 2026-05-07 11:00 | 51.22774 | 4.35922 | 10075 ft | 291 kts | 118° |
| 2026-05-07 11:00 | 51.21840 | 4.38779 | 10074 ft | 289 kts | 118° |
| 2026-05-07 11:00 | 51.20905 | 4.41621 | 10075 ft | 289 kts | 118° |
| 2026-05-07 11:00 | 51.19962 | 4.44457 | 10075 ft | 290 kts | 118° |
| 2026-05-07 11:01 | 51.19074 | 4.47338 | 10075 ft | 290 kts | 112° |
| 2026-05-07 11:01 | 51.18417 | 4.50380 | 10061 ft | 289 kts | 108° |
| 2026-05-07 11:01 | 51.17832 | 4.53422 | 9566 ft | 286 kts | 108° |
| 2026-05-07 11:01 | 51.17251 | 4.56475 | 8799 ft | 289 kts | 108° |
| 2026-05-07 11:02 | 51.16671 | 4.59510 | 8211 ft | 287 kts | 108° |
| 2026-05-07 11:02 | 51.16088 | 4.62535 | 7597 ft | 284 kts | 108° |
| 2026-05-07 11:02 | 51.15507 | 4.65538 | 6977 ft | 283 kts | 108° |
| 2026-05-07 11:02 | 51.14929 | 4.68504 | 6430 ft | 279 kts | 107° |
| 2026-05-07 11:03 | 51.14357 | 4.71445 | 5802 ft | 276 kts | 107° |
| 2026-05-07 11:03 | 51.13790 | 4.74356 | 5181 ft | 274 kts | 107° |
| 2026-05-07 11:03 | 51.13226 | 4.77238 | 4572 ft | 273 kts | 106° |
| 2026-05-07 11:03 | 51.12658 | 4.80120 | 3942 ft | 271 kts | 107° |
| 2026-05-07 11:04 | 51.11866 | 4.82756 | 3501 ft | 264 kts | 128° |
| 2026-05-07 11:04 | 51.10435 | 4.84412 | 3255 ft | 251 kts | 160° |
| 2026-05-07 11:04 | 51.08774 | 4.85008 | 2844 ft | 239 kts | 170° |
| 2026-05-07 11:04 | 51.07127 | 4.85365 | 2564 ft | 237 kts | 172° |
| 2026-05-07 11:05 | 51.05527 | 4.85694 | 2303 ft | 227 kts | 171° |
| 2026-05-07 11:05 | 51.04010 | 4.85992 | 2090 ft | 216 kts | 175° |
| 2026-05-07 11:05 | 51.02560 | 4.85749 | 2046 ft | 210 kts | 204° |
| 2026-05-07 11:05 | 51.01393 | 4.84398 | 2050 ft | 208 kts | 227° |
| 2026-05-07 11:06 | 51.00551 | 4.82530 | 2069 ft | 210 kts | 243° |
| 2026-05-07 11:06 | 50.99927 | 4.80435 | 2052 ft | 209 kts | 247° |
| 2026-05-07 11:06 | 50.99330 | 4.78314 | 2053 ft | 209 kts | 246° |
| 2026-05-07 11:06 | 50.98730 | 4.76211 | 2052 ft | 209 kts | 246° |
| 2026-05-07 11:07 | 50.98122 | 4.74111 | 2051 ft | 209 kts | 246° |
| 2026-05-07 11:07 | 50.97526 | 4.72045 | 2069 ft | 208 kts | 246° |
| 2026-05-07 11:07 | 50.96923 | 4.69958 | 2062 ft | 208 kts | 246° |
| 2026-05-07 11:07 | 50.96321 | 4.67866 | 2083 ft | 209 kts | 246° |
| 2026-05-07 11:08 | 50.95719 | 4.65772 | 2083 ft | 208 kts | 246° |
| 2026-05-07 11:08 | 50.95117 | 4.63687 | 2043 ft | 209 kts | 246° |
| 2026-05-07 11:08 | 50.94515 | 4.61595 | 1775 ft | 208 kts | 246° |
| 2026-05-07 11:08 | 50.93913 | 4.59506 | 1473 ft | 207 kts | 245° |
| 2026-05-07 11:09 | 50.93318 | 4.57440 | 1181 ft | 205 kts | 246° |
| 2026-05-07 11:09 | 50.92742 | 4.55439 | 908 ft | 191 kts | 246° |
| 2026-05-07 11:09 | 50.92211 | 4.53600 | 650 ft | 176 kts | 246° |
| 2026-05-07 11:09 | 50.91727 | 4.51919 | 418 ft | 159 kts | 246° |
| 2026-05-07 11:10 | 50.91297 | 4.50429 | 223 ft | 145 kts | 246° |
| 2026-05-07 11:10 | 50.90887 | 4.49027 | 124 ft | 132 kts | 246° |
| 2026-05-07 11:10 | 50.90571 | 4.47921 | 124 ft | 86 kts | 245° |
| 2026-05-07 11:10 | 50.90368 | 4.47217 | 126 ft | 63 kts | 245° |
| 2026-05-07 11:11 | 50.90294 | 4.46709 | 134 ft | 35 kts | 295° |
| 2026-05-07 11:11 | 50.90360 | 4.46483 | 137 ft | 16 kts | 282° |
| 2026-05-07 11:11 | 50.90341 | 4.46332 | 139 ft | 13 kts | 246° |
| 2026-05-07 11:11 | 50.90308 | 4.46215 | 140 ft | 10 kts | 245° |
| 2026-05-07 11:12 | 50.90282 | 4.46123 | 141 ft | 8 kts | 245° |
| 2026-05-07 11:12 | 50.90262 | 4.46054 | 142 ft | 6 kts | 246° |
| 2026-05-07 11:12 | 50.90249 | 4.46008 | 143 ft | 3 kts | 246° |
| 2026-05-07 11:12 | 50.90243 | 4.45985 | 143 ft | 4 kts | 246° |
| 2026-05-07 11:13 | 50.90234 | 4.45955 | 143 ft | 2 kts | 245° |
| 2026-05-07 11:13 | 50.90209 | 4.45873 | 144 ft | 13 kts | 245° |
| 2026-05-07 11:13 | 50.90172 | 4.45746 | 145 ft | 13 kts | 245° |
| 2026-05-07 11:13 | 50.90156 | 4.45657 | 146 ft | 3 kts | 295° |
| 2026-05-07 11:14 | 50.90171 | 4.45638 | 146 ft | 4 kts | 324° |
| 2026-05-07 11:14 | 50.90195 | 4.45617 | 146 ft | 4 kts | 333° |
| 2026-05-07 11:14 | 50.90214 | 4.45603 | 146 ft | 3 kts | 336° |
| 2026-05-07 11:14 | 50.90228 | 4.45593 | 146 ft | 0 kts | 335° |